sensor_id;sensor_type;location;lat;lon;timestamp;temperature;humidity
14182;DHT22;7171;50.936;6.764;2023-12-29T00:02:18;12.50;99.90
14182;DHT22;7171;50.936;6.764;2023-12-29T00:04:45;12.60;99.90
14182;DHT22;7171;50.936;6.764;2023-12-29T00:07:12;12.60;99.90
14182;DHT22;7171;50.936;6.764;2023-12-29T00:09:39;12.60;99.90
14182;DHT22;7171;50.936;6.764;2023-12-29T00:12:07;12.60;99.90
14182;DHT22;7171;50.936;6.764;2023-12-29T00:14:37;12.60;99.90
14182;DHT22;7171;50.936;6.764;2023-12-29T00:17:05;12.60;99.90
14182;DHT22;7171;50.936;6.764;2023-12-29T00:19:32;12.60;99.90
14182;DHT22;7171;50.936;6.764;2023-12-29T00:21:58;12.60;99.90
14182;DHT22;7171;50.936;6.764;2023-12-29T00:24:28;12.60;99.90
14182;DHT22;7171;50.936;6.764;2023-12-29T00:26:56;12.60;99.90
14182;DHT22;7171;50.936;6.764;2023-12-29T00:29:23;12.60;99.90
14182;DHT22;7171;50.936;6.764;2023-12-29T00:31:50;12.60;99.90
14182;DHT22;7171;50.936;6.764;2023-12-29T00:34:18;12.60;99.90
14182;DHT22;7171;50.936;6.764;2023-12-29T00:36:45;12.60;99.90
14182;DHT22;7171;50.936;6.764;2023-12-29T00:39:12;12.60;99.90
14182;DHT22;7171;50.936;6.764;2023-12-29T00:41:39;12.60;99.90
14182;DHT22;7171;50.936;6.764;2023-12-29T00:44:07;12.60;99.90
14182;DHT22;7171;50.936;6.764;2023-12-29T00:46:33;12.70;99.90
14182;DHT22;7171;50.936;6.764;2023-12-29T00:49:00;12.70;99.90
14182;DHT22;7171;50.936;6.764;2023-12-29T00:51:28;12.70;99.90
14182;DHT22;7171;50.936;6.764;2023-12-29T00:53:55;12.70;99.90
14182;DHT22;7171;50.936;6.764;2023-12-29T00:56:22;12.70;99.90
14182;DHT22;7171;50.936;6.764;2023-12-29T00:58:49;12.70;99.90
14182;DHT22;7171;50.936;6.764;2023-12-29T01:01:15;12.60;99.90
14182;DHT22;7171;50.936;6.764;2023-12-29T01:03:42;12.70;99.90
14182;DHT22;7171;50.936;6.764;2023-12-29T01:06:09;12.70;99.90
14182;DHT22;7171;50.936;6.764;2023-12-29T01:08:37;12.70;99.90
14182;DHT22;7171;50.936;6.764;2023-12-29T01:11:04;12.60;99.90
14182;DHT22;7171;50.936;6.764;2023-12-29T01:13:31;12.70;99.90
14182;DHT22;7171;50.936;6.764;2023-12-29T01:15:58;12.60;99.90
14182;DHT22;7171;50.936;6.764;2023-12-29T01:18:24;12.60;99.90
14182;DHT22;7171;50.936;6.764;2023-12-29T01:20:51;12.60;99.90
14182;DHT22;7171;50.936;6.764;2023-12-29T01:23:18;12.60;99.90
14182;DHT22;7171;50.936;6.764;2023-12-29T01:25:46;12.60;99.90
14182;DHT22;7171;50.936;6.764;2023-12-29T01:28:13;12.60;99.90
14182;DHT22;7171;50.936;6.764;2023-12-29T01:30:40;12.60;99.90
14182;DHT22;7171;50.936;6.764;2023-12-29T01:33:06;12.60;99.90
14182;DHT22;7171;50.936;6.764;2023-12-29T01:35:33;12.60;99.90
14182;DHT22;7171;50.936;6.764;2023-12-29T01:38:02;12.60;99.90
14182;DHT22;7171;50.936;6.764;2023-12-29T01:40:29;12.60;99.90
14182;DHT22;7171;50.936;6.764;2023-12-29T01:42:57;12.60;99.90
14182;DHT22;7171;50.936;6.764;2023-12-29T01:45:24;12.60;99.90
14182;DHT22;7171;50.936;6.764;2023-12-29T01:47:52;12.60;99.90
14182;DHT22;7171;50.936;6.764;2023-12-29T01:50:21;12.60;99.90
14182;DHT22;7171;50.936;6.764;2023-12-29T01:52:48;12.60;99.90
14182;DHT22;7171;50.936;6.764;2023-12-29T01:55:18;12.60;99.90
14182;DHT22;7171;50.936;6.764;2023-12-29T01:57:47;12.60;99.90
14182;DHT22;7171;50.936;6.764;2023-12-29T02:00:16;12.60;99.90
14182;DHT22;7171;50.936;6.764;2023-12-29T02:02:44;12.60;99.90
14182;DHT22;7171;50.936;6.764;2023-12-29T02:05:14;12.60;99.90
14182;DHT22;7171;50.936;6.764;2023-12-29T02:07:41;12.50;99.90
14182;DHT22;7171;50.936;6.764;2023-12-29T02:10:08;10.60;99.90
14182;DHT22;7171;50.936;6.764;2023-12-29T02:12:39;12.50;99.90
14182;DHT22;7171;50.936;6.764;2023-12-29T02:15:07;12.50;99.90
14182;DHT22;7171;50.936;6.764;2023-12-29T02:17:40;12.50;99.90
14182;DHT22;7171;50.936;6.764;2023-12-29T02:20:08;12.50;99.90
14182;DHT22;7171;50.936;6.764;2023-12-29T02:22:35;12.50;99.90
14182;DHT22;7171;50.936;6.764;2023-12-29T02:25:04;12.50;99.90
14182;DHT22;7171;50.936;6.764;2023-12-29T02:27:38;12.50;99.90
14182;DHT22;7171;50.936;6.764;2023-12-29T02:30:11;12.50;99.90
14182;DHT22;7171;50.936;6.764;2023-12-29T02:32:42;12.50;99.90
14182;DHT22;7171;50.936;6.764;2023-12-29T02:35:11;12.50;99.90
14182;DHT22;7171;50.936;6.764;2023-12-29T02:37:39;12.50;99.90
14182;DHT22;7171;50.936;6.764;2023-12-29T02:40:09;12.50;99.90
14182;DHT22;7171;50.936;6.764;2023-12-29T02:42:36;12.50;99.90
14182;DHT22;7171;50.936;6.764;2023-12-29T02:45:04;12.50;99.90
14182;DHT22;7171;50.936;6.764;2023-12-29T02:47:31;12.50;99.90
14182;DHT22;7171;50.936;6.764;2023-12-29T02:49:58;12.50;99.90
14182;DHT22;7171;50.936;6.764;2023-12-29T02:52:24;12.50;99.90
14182;DHT22;7171;50.936;6.764;2023-12-29T02:54:51;12.50;99.90
14182;DHT22;7171;50.936;6.764;2023-12-29T02:57:19;12.50;99.90
14182;DHT22;7171;50.936;6.764;2023-12-29T02:59:46;12.50;99.90
14182;DHT22;7171;50.936;6.764;2023-12-29T03:02:13;12.40;99.90
14182;DHT22;7171;50.936;6.764;2023-12-29T03:04:39;12.50;99.90
14182;DHT22;7171;50.936;6.764;2023-12-29T03:07:06;12.40;99.90
14182;DHT22;7171;50.936;6.764;2023-12-29T03:09:33;12.50;99.90
14182;DHT22;7171;50.936;6.764;2023-12-29T03:12:00;12.50;99.90
14182;DHT22;7171;50.936;6.764;2023-12-29T03:14:28;12.50;99.90
14182;DHT22;7171;50.936;6.764;2023-12-29T03:16:55;12.50;99.90
14182;DHT22;7171;50.936;6.764;2023-12-29T03:19:23;12.40;99.90
14182;DHT22;7171;50.936;6.764;2023-12-29T03:21:50;12.40;99.90
14182;DHT22;7171;50.936;6.764;2023-12-29T03:24:18;12.40;99.90
14182;DHT22;7171;50.936;6.764;2023-12-29T03:26:45;12.40;99.90
14182;DHT22;7171;50.936;6.764;2023-12-29T03:29:11;12.40;99.90
14182;DHT22;7171;50.936;6.764;2023-12-29T03:31:39;12.40;99.90
14182;DHT22;7171;50.936;6.764;2023-12-29T03:34:06;12.40;99.90
14182;DHT22;7171;50.936;6.764;2023-12-29T03:36:33;12.40;99.90
14182;DHT22;7171;50.936;6.764;2023-12-29T03:39:00;12.30;99.90
14182;DHT22;7171;50.936;6.764;2023-12-29T03:41:28;12.40;99.90
14182;DHT22;7171;50.936;6.764;2023-12-29T03:43:55;12.40;99.90
14182;DHT22;7171;50.936;6.764;2023-12-29T03:46:22;12.40;99.90
14182;DHT22;7171;50.936;6.764;2023-12-29T03:48:50;12.40;99.90
14182;DHT22;7171;50.936;6.764;2023-12-29T03:51:18;12.30;99.90
14182;DHT22;7171;50.936;6.764;2023-12-29T03:53:45;12.40;99.90
14182;DHT22;7171;50.936;6.764;2023-12-29T03:56:14;12.40;99.90
14182;DHT22;7171;50.936;6.764;2023-12-29T03:58:41;12.40;99.90
14182;DHT22;7171;50.936;6.764;2023-12-29T04:01:09;12.40;99.90
14182;DHT22;7171;50.936;6.764;2023-12-29T04:03:36;12.40;99.90
14182;DHT22;7171;50.936;6.764;2023-12-29T04:06:04;12.40;99.90
14182;DHT22;7171;50.936;6.764;2023-12-29T04:08:31;12.40;99.90
14182;DHT22;7171;50.936;6.764;2023-12-29T04:10:58;12.40;99.90
14182;DHT22;7171;50.936;6.764;2023-12-29T04:13:25;12.40;99.90
14182;DHT22;7171;50.936;6.764;2023-12-29T04:15:52;12.40;99.90
14182;DHT22;7171;50.936;6.764;2023-12-29T04:18:20;12.40;99.90
14182;DHT22;7171;50.936;6.764;2023-12-29T04:20:47;12.40;99.90
14182;DHT22;7171;50.936;6.764;2023-12-29T04:23:15;12.40;99.90
14182;DHT22;7171;50.936;6.764;2023-12-29T04:25:42;12.30;99.90
14182;DHT22;7171;50.936;6.764;2023-12-29T04:28:09;12.30;99.90
14182;DHT22;7171;50.936;6.764;2023-12-29T04:30:36;12.30;99.90
14182;DHT22;7171;50.936;6.764;2023-12-29T04:33:03;12.30;99.90
14182;DHT22;7171;50.936;6.764;2023-12-29T04:35:30;12.40;99.90
14182;DHT22;7171;50.936;6.764;2023-12-29T04:37:57;12.40;99.90
14182;DHT22;7171;50.936;6.764;2023-12-29T04:40:25;12.40;99.90
14182;DHT22;7171;50.936;6.764;2023-12-29T04:42:52;12.30;99.90
14182;DHT22;7171;50.936;6.764;2023-12-29T04:45:18;12.40;99.90
14182;DHT22;7171;50.936;6.764;2023-12-29T04:47:46;12.30;99.90
14182;DHT22;7171;50.936;6.764;2023-12-29T04:50:13;12.30;99.90
14182;DHT22;7171;50.936;6.764;2023-12-29T04:52:39;12.30;99.90
14182;DHT22;7171;50.936;6.764;2023-12-29T04:55:07;12.30;99.90
14182;DHT22;7171;50.936;6.764;2023-12-29T04:57:35;12.40;99.90
14182;DHT22;7171;50.936;6.764;2023-12-29T05:00:02;12.40;99.90
14182;DHT22;7171;50.936;6.764;2023-12-29T05:02:30;12.40;99.90
14182;DHT22;7171;50.936;6.764;2023-12-29T05:04:56;12.40;99.90
14182;DHT22;7171;50.936;6.764;2023-12-29T05:07:23;12.40;99.90
14182;DHT22;7171;50.936;6.764;2023-12-29T05:09:51;12.40;99.90
14182;DHT22;7171;50.936;6.764;2023-12-29T05:12:18;12.40;99.90
14182;DHT22;7171;50.936;6.764;2023-12-29T05:14:46;12.30;99.90
14182;DHT22;7171;50.936;6.764;2023-12-29T05:17:13;12.40;99.90
14182;DHT22;7171;50.936;6.764;2023-12-29T05:19:40;12.30;99.90
14182;DHT22;7171;50.936;6.764;2023-12-29T05:22:06;12.30;99.90
14182;DHT22;7171;50.936;6.764;2023-12-29T05:24:33;12.30;99.90
14182;DHT22;7171;50.936;6.764;2023-12-29T05:27:00;12.30;99.90
14182;DHT22;7171;50.936;6.764;2023-12-29T05:29:27;12.30;99.90
14182;DHT22;7171;50.936;6.764;2023-12-29T05:31:55;12.30;99.90
14182;DHT22;7171;50.936;6.764;2023-12-29T05:34:22;12.30;99.90
14182;DHT22;7171;50.936;6.764;2023-12-29T05:36:49;12.30;99.90
14182;DHT22;7171;50.936;6.764;2023-12-29T05:39:16;12.30;99.90
14182;DHT22;7171;50.936;6.764;2023-12-29T05:41:42;12.30;99.90
14182;DHT22;7171;50.936;6.764;2023-12-29T05:44:09;12.30;99.90
14182;DHT22;7171;50.936;6.764;2023-12-29T05:46:36;12.20;99.90
14182;DHT22;7171;50.936;6.764;2023-12-29T05:49:04;12.20;99.90
14182;DHT22;7171;50.936;6.764;2023-12-29T05:51:31;12.10;99.90
14182;DHT22;7171;50.936;6.764;2023-12-29T05:53:58;12.10;99.90
14182;DHT22;7171;50.936;6.764;2023-12-29T05:56:25;12.10;99.90
14182;DHT22;7171;50.936;6.764;2023-12-29T05:58:52;12.10;99.90
14182;DHT22;7171;50.936;6.764;2023-12-29T06:01:19;12.10;99.90
14182;DHT22;7171;50.936;6.764;2023-12-29T06:03:46;12.10;99.90
14182;DHT22;7171;50.936;6.764;2023-12-29T06:06:14;12.10;99.90
14182;DHT22;7171;50.936;6.764;2023-12-29T06:08:41;12.00;99.90
14182;DHT22;7171;50.936;6.764;2023-12-29T06:11:07;12.00;99.90
14182;DHT22;7171;50.936;6.764;2023-12-29T06:13:34;12.00;99.90
14182;DHT22;7171;50.936;6.764;2023-12-29T06:16:01;12.00;99.90
14182;DHT22;7171;50.936;6.764;2023-12-29T06:18:28;12.00;99.90
14182;DHT22;7171;50.936;6.764;2023-12-29T06:20:55;12.00;99.90
14182;DHT22;7171;50.936;6.764;2023-12-29T06:23:23;12.10;99.90
14182;DHT22;7171;50.936;6.764;2023-12-29T06:25:51;11.90;99.90
14182;DHT22;7171;50.936;6.764;2023-12-29T06:28:18;12.00;99.90
14182;DHT22;7171;50.936;6.764;2023-12-29T06:30:45;12.00;99.90
14182;DHT22;7171;50.936;6.764;2023-12-29T06:33:12;12.00;99.90
14182;DHT22;7171;50.936;6.764;2023-12-29T06:35:38;12.00;99.90
14182;DHT22;7171;50.936;6.764;2023-12-29T06:38:05;12.00;99.90
14182;DHT22;7171;50.936;6.764;2023-12-29T06:40:33;12.00;99.90
14182;DHT22;7171;50.936;6.764;2023-12-29T06:43:00;12.00;99.90
14182;DHT22;7171;50.936;6.764;2023-12-29T06:45:27;12.00;99.90
14182;DHT22;7171;50.936;6.764;2023-12-29T06:47:54;12.00;99.90
14182;DHT22;7171;50.936;6.764;2023-12-29T06:50:21;12.00;99.90
14182;DHT22;7171;50.936;6.764;2023-12-29T06:52:48;12.00;99.90
14182;DHT22;7171;50.936;6.764;2023-12-29T06:55:15;12.10;99.90
14182;DHT22;7171;50.936;6.764;2023-12-29T06:57:43;12.10;99.90
14182;DHT22;7171;50.936;6.764;2023-12-29T07:00:11;12.00;99.90
14182;DHT22;7171;50.936;6.764;2023-12-29T07:02:38;12.10;99.90
14182;DHT22;7171;50.936;6.764;2023-12-29T07:05:06;12.00;99.90
14182;DHT22;7171;50.936;6.764;2023-12-29T07:07:33;12.10;99.90
14182;DHT22;7171;50.936;6.764;2023-12-29T07:10:00;12.00;99.90
14182;DHT22;7171;50.936;6.764;2023-12-29T07:12:29;12.10;99.90
14182;DHT22;7171;50.936;6.764;2023-12-29T07:14:57;12.10;99.90
14182;DHT22;7171;50.936;6.764;2023-12-29T07:17:24;12.20;99.90
14182;DHT22;7171;50.936;6.764;2023-12-29T07:19:51;12.20;99.90
14182;DHT22;7171;50.936;6.764;2023-12-29T07:22:18;12.20;99.90
14182;DHT22;7171;50.936;6.764;2023-12-29T07:24:44;12.20;99.90
14182;DHT22;7171;50.936;6.764;2023-12-29T07:27:11;12.20;99.90
14182;DHT22;7171;50.936;6.764;2023-12-29T07:29:38;12.20;99.90
14182;DHT22;7171;50.936;6.764;2023-12-29T07:32:06;12.20;99.90
14182;DHT22;7171;50.936;6.764;2023-12-29T07:34:33;12.30;99.90
14182;DHT22;7171;50.936;6.764;2023-12-29T07:37:00;12.30;99.90
14182;DHT22;7171;50.936;6.764;2023-12-29T07:39:27;12.20;99.90
14182;DHT22;7171;50.936;6.764;2023-12-29T07:41:54;12.30;99.90
14182;DHT22;7171;50.936;6.764;2023-12-29T07:44:21;12.40;99.90
14182;DHT22;7171;50.936;6.764;2023-12-29T07:46:48;12.40;99.90
14182;DHT22;7171;50.936;6.764;2023-12-29T07:49:16;12.40;99.90
14182;DHT22;7171;50.936;6.764;2023-12-29T07:51:46;12.40;99.90
14182;DHT22;7171;50.936;6.764;2023-12-29T07:54:13;12.40;99.90
14182;DHT22;7171;50.936;6.764;2023-12-29T07:56:40;12.40;99.90
14182;DHT22;7171;50.936;6.764;2023-12-29T07:59:06;12.40;99.90
14182;DHT22;7171;50.936;6.764;2023-12-29T08:01:33;12.40;99.90
14182;DHT22;7171;50.936;6.764;2023-12-29T08:04:02;12.40;99.90
14182;DHT22;7171;50.936;6.764;2023-12-29T08:06:30;12.40;99.90
14182;DHT22;7171;50.936;6.764;2023-12-29T08:08:57;12.40;99.90
14182;DHT22;7171;50.936;6.764;2023-12-29T08:11:24;12.40;99.90
14182;DHT22;7171;50.936;6.764;2023-12-29T08:13:51;12.30;99.90
14182;DHT22;7171;50.936;6.764;2023-12-29T08:16:17;12.30;99.90
14182;DHT22;7171;50.936;6.764;2023-12-29T08:18:45;12.30;99.90
14182;DHT22;7171;50.936;6.764;2023-12-29T08:21:16;12.20;99.90
14182;DHT22;7171;50.936;6.764;2023-12-29T08:23:46;12.00;99.90
14182;DHT22;7171;50.936;6.764;2023-12-29T08:26:13;12.10;99.90
14182;DHT22;7171;50.936;6.764;2023-12-29T08:28:40;12.00;99.90
14182;DHT22;7171;50.936;6.764;2023-12-29T08:31:07;11.90;99.90
14182;DHT22;7171;50.936;6.764;2023-12-29T08:33:34;11.80;99.90
14182;DHT22;7171;50.936;6.764;2023-12-29T08:36:02;11.80;99.90
14182;DHT22;7171;50.936;6.764;2023-12-29T08:38:29;11.70;99.90
14182;DHT22;7171;50.936;6.764;2023-12-29T08:40:58;11.70;99.90
14182;DHT22;7171;50.936;6.764;2023-12-29T08:43:25;11.50;99.90
14182;DHT22;7171;50.936;6.764;2023-12-29T08:45:52;11.60;99.90
14182;DHT22;7171;50.936;6.764;2023-12-29T08:48:19;11.60;99.90
14182;DHT22;7171;50.936;6.764;2023-12-29T08:50:46;11.60;99.90
14182;DHT22;7171;50.936;6.764;2023-12-29T08:53:13;11.50;99.90
14182;DHT22;7171;50.936;6.764;2023-12-29T08:55:41;11.50;99.90
14182;DHT22;7171;50.936;6.764;2023-12-29T08:58:09;11.50;99.90
14182;DHT22;7171;50.936;6.764;2023-12-29T09:00:36;11.50;99.90
14182;DHT22;7171;50.936;6.764;2023-12-29T09:03:03;11.60;99.90
14182;DHT22;7171;50.936;6.764;2023-12-29T09:05:30;11.50;99.90
14182;DHT22;7171;50.936;6.764;2023-12-29T09:07:56;11.40;99.90
14182;DHT22;7171;50.936;6.764;2023-12-29T09:10:23;11.40;99.90
14182;DHT22;7171;50.936;6.764;2023-12-29T09:12:50;11.40;99.90
14182;DHT22;7171;50.936;6.764;2023-12-29T09:15:18;11.40;99.90
14182;DHT22;7171;50.936;6.764;2023-12-29T09:17:45;11.40;99.90
14182;DHT22;7171;50.936;6.764;2023-12-29T09:20:11;11.40;99.90
14182;DHT22;7171;50.936;6.764;2023-12-29T09:22:40;11.40;99.90
14182;DHT22;7171;50.936;6.764;2023-12-29T09:25:07;11.40;99.90
14182;DHT22;7171;50.936;6.764;2023-12-29T09:27:34;11.30;99.90
14182;DHT22;7171;50.936;6.764;2023-12-29T09:30:00;11.30;99.90
14182;DHT22;7171;50.936;6.764;2023-12-29T09:32:29;11.30;99.90
14182;DHT22;7171;50.936;6.764;2023-12-29T09:34:56;11.40;99.90
14182;DHT22;7171;50.936;6.764;2023-12-29T09:37:23;11.40;99.90
14182;DHT22;7171;50.936;6.764;2023-12-29T09:39:49;11.30;99.90
14182;DHT22;7171;50.936;6.764;2023-12-29T09:42:20;11.40;99.90
14182;DHT22;7171;50.936;6.764;2023-12-29T09:44:49;11.40;99.90
14182;DHT22;7171;50.936;6.764;2023-12-29T09:47:21;11.40;99.90
14182;DHT22;7171;50.936;6.764;2023-12-29T09:49:52;11.40;99.90
14182;DHT22;7171;50.936;6.764;2023-12-29T09:52:21;11.40;99.90
14182;DHT22;7171;50.936;6.764;2023-12-29T09:54:48;11.40;99.90
14182;DHT22;7171;50.936;6.764;2023-12-29T09:57:17;11.40;99.90
14182;DHT22;7171;50.936;6.764;2023-12-29T09:59:44;11.40;99.90
14182;DHT22;7171;50.936;6.764;2023-12-29T10:02:14;11.40;99.90
14182;DHT22;7171;50.936;6.764;2023-12-29T10:04:41;11.30;99.90
14182;DHT22;7171;50.936;6.764;2023-12-29T10:07:15;11.50;99.90
14182;DHT22;7171;50.936;6.764;2023-12-29T10:09:45;11.50;99.90
14182;DHT22;7171;50.936;6.764;2023-12-29T10:12:13;11.50;99.90
14182;DHT22;7171;50.936;6.764;2023-12-29T10:14:46;11.40;99.90
14182;DHT22;7171;50.936;6.764;2023-12-29T10:17:21;11.50;99.90
14182;DHT22;7171;50.936;6.764;2023-12-29T10:19:59;11.60;99.90
14182;DHT22;7171;50.936;6.764;2023-12-29T10:22:41;11.60;99.90
14182;DHT22;7171;50.936;6.764;2023-12-29T10:25:14;11.60;99.90
14182;DHT22;7171;50.936;6.764;2023-12-29T10:27:41;11.60;99.90
14182;DHT22;7171;50.936;6.764;2023-12-29T10:30:10;11.70;99.90
14182;DHT22;7171;50.936;6.764;2023-12-29T10:32:37;11.70;99.90
14182;DHT22;7171;50.936;6.764;2023-12-29T10:35:08;11.70;99.90
14182;DHT22;7171;50.936;6.764;2023-12-29T10:37:37;11.70;99.90
14182;DHT22;7171;50.936;6.764;2023-12-29T10:40:05;11.80;99.90
14182;DHT22;7171;50.936;6.764;2023-12-29T10:42:32;11.80;99.90
14182;DHT22;7171;50.936;6.764;2023-12-29T10:45:06;11.80;99.90
14182;DHT22;7171;50.936;6.764;2023-12-29T10:47:33;11.90;99.90
14182;DHT22;7171;50.936;6.764;2023-12-29T10:50:01;11.90;99.90
14182;DHT22;7171;50.936;6.764;2023-12-29T10:52:29;11.90;99.90
14182;DHT22;7171;50.936;6.764;2023-12-29T10:55:06;12.00;99.90
14182;DHT22;7171;50.936;6.764;2023-12-29T10:57:33;12.00;99.90
14182;DHT22;7171;50.936;6.764;2023-12-29T11:00:00;12.10;99.90
14182;DHT22;7171;50.936;6.764;2023-12-29T11:02:27;12.10;99.90
14182;DHT22;7171;50.936;6.764;2023-12-29T11:05:04;12.10;99.90
14182;DHT22;7171;50.936;6.764;2023-12-29T11:07:33;12.10;99.90
14182;DHT22;7171;50.936;6.764;2023-12-29T11:10:01;12.20;99.90
14182;DHT22;7171;50.936;6.764;2023-12-29T11:12:32;12.20;99.90
14182;DHT22;7171;50.936;6.764;2023-12-29T11:15:01;12.30;99.90
14182;DHT22;7171;50.936;6.764;2023-12-29T11:17:30;12.30;99.90
14182;DHT22;7171;50.936;6.764;2023-12-29T11:19:59;12.30;99.90
14182;DHT22;7171;50.936;6.764;2023-12-29T11:22:28;12.30;99.90
14182;DHT22;7171;50.936;6.764;2023-12-29T11:24:55;12.40;99.90
14182;DHT22;7171;50.936;6.764;2023-12-29T11:27:25;12.50;99.90
14182;DHT22;7171;50.936;6.764;2023-12-29T11:29:55;12.50;99.90
14182;DHT22;7171;50.936;6.764;2023-12-29T11:32:27;12.50;99.90
14182;DHT22;7171;50.936;6.764;2023-12-29T11:34:59;12.60;99.90
14182;DHT22;7171;50.936;6.764;2023-12-29T11:37:36;13.60;99.90
14182;DHT22;7171;50.936;6.764;2023-12-29T11:40:18;12.60;99.90
14182;DHT22;7171;50.936;6.764;2023-12-29T11:42:49;12.70;99.90
14182;DHT22;7171;50.936;6.764;2023-12-29T11:45:29;12.70;99.90
14182;DHT22;7171;50.936;6.764;2023-12-29T11:47:57;12.70;99.90
14182;DHT22;7171;50.936;6.764;2023-12-29T11:50:28;12.80;99.90
14182;DHT22;7171;50.936;6.764;2023-12-29T11:52:56;12.90;99.90
14182;DHT22;7171;50.936;6.764;2023-12-29T11:55:28;12.90;99.90
14182;DHT22;7171;50.936;6.764;2023-12-29T11:57:56;12.90;99.90
14182;DHT22;7171;50.936;6.764;2023-12-29T12:00:42;12.90;99.90
14182;DHT22;7171;50.936;6.764;2023-12-29T12:03:17;12.90;99.90
14182;DHT22;7171;50.936;6.764;2023-12-29T12:05:46;12.90;99.90
14182;DHT22;7171;50.936;6.764;2023-12-29T12:08:27;12.90;99.90
14182;DHT22;7171;50.936;6.764;2023-12-29T12:10:54;12.90;99.90
14182;DHT22;7171;50.936;6.764;2023-12-29T12:13:44;12.90;99.90
14182;DHT22;7171;50.936;6.764;2023-12-29T12:19:13;12.90;99.90
14182;DHT22;7171;50.936;6.764;2023-12-29T12:21:40;12.90;99.90
14182;DHT22;7171;50.936;6.764;2023-12-29T12:24:07;12.90;99.90
14182;DHT22;7171;50.936;6.764;2023-12-29T12:26:34;12.90;99.90
14182;DHT22;7171;50.936;6.764;2023-12-29T12:29:01;12.90;99.90
14182;DHT22;7171;50.936;6.764;2023-12-29T12:31:28;12.90;99.90
14182;DHT22;7171;50.936;6.764;2023-12-29T12:33:55;12.90;99.90
14182;DHT22;7171;50.936;6.764;2023-12-29T12:36:24;12.90;99.90
14182;DHT22;7171;50.936;6.764;2023-12-29T12:38:52;12.90;99.90
14182;DHT22;7171;50.936;6.764;2023-12-29T12:41:19;12.90;99.90
14182;DHT22;7171;50.936;6.764;2023-12-29T12:43:50;12.90;99.90
14182;DHT22;7171;50.936;6.764;2023-12-29T12:46:22;12.90;99.90
14182;DHT22;7171;50.936;6.764;2023-12-29T12:48:50;13.00;99.90
14182;DHT22;7171;50.936;6.764;2023-12-29T12:51:19;12.90;99.90
14182;DHT22;7171;50.936;6.764;2023-12-29T12:53:47;12.90;99.90
14182;DHT22;7171;50.936;6.764;2023-12-29T12:56:15;13.00;99.90
14182;DHT22;7171;50.936;6.764;2023-12-29T12:58:42;13.00;99.90
14182;DHT22;7171;50.936;6.764;2023-12-29T13:01:09;12.90;99.90
14182;DHT22;7171;50.936;6.764;2023-12-29T13:03:37;12.90;99.90
14182;DHT22;7171;50.936;6.764;2023-12-29T13:06:05;12.90;99.90
14182;DHT22;7171;50.936;6.764;2023-12-29T13:08:33;12.90;99.90
14182;DHT22;7171;50.936;6.764;2023-12-29T13:11:02;12.90;99.90
14182;DHT22;7171;50.936;6.764;2023-12-29T13:13:36;12.90;99.90
14182;DHT22;7171;50.936;6.764;2023-12-29T13:16:03;12.90;99.90
14182;DHT22;7171;50.936;6.764;2023-12-29T13:18:31;12.90;99.90
14182;DHT22;7171;50.936;6.764;2023-12-29T13:20:58;12.80;99.90
14182;DHT22;7171;50.936;6.764;2023-12-29T13:23:25;12.80;99.90
14182;DHT22;7171;50.936;6.764;2023-12-29T13:25:54;12.80;99.90
14182;DHT22;7171;50.936;6.764;2023-12-29T13:28:23;12.80;99.90
14182;DHT22;7171;50.936;6.764;2023-12-29T13:30:50;12.80;99.90
14182;DHT22;7171;50.936;6.764;2023-12-29T13:33:24;12.80;99.90
14182;DHT22;7171;50.936;6.764;2023-12-29T13:35:54;12.80;99.90
14182;DHT22;7171;50.936;6.764;2023-12-29T13:38:27;12.80;99.90
14182;DHT22;7171;50.936;6.764;2023-12-29T13:40:57;12.80;99.90
14182;DHT22;7171;50.936;6.764;2023-12-29T13:43:30;12.80;99.90
14182;DHT22;7171;50.936;6.764;2023-12-29T13:45:59;12.80;99.90
14182;DHT22;7171;50.936;6.764;2023-12-29T13:48:26;12.80;99.90
14182;DHT22;7171;50.936;6.764;2023-12-29T13:50:53;12.80;99.90
14182;DHT22;7171;50.936;6.764;2023-12-29T13:53:21;12.80;99.90
14182;DHT22;7171;50.936;6.764;2023-12-29T13:55:48;12.80;99.90
14182;DHT22;7171;50.936;6.764;2023-12-29T13:58:16;12.80;99.90
14182;DHT22;7171;50.936;6.764;2023-12-29T14:00:46;12.70;99.90
14182;DHT22;7171;50.936;6.764;2023-12-29T14:03:23;12.60;99.90
14182;DHT22;7171;50.936;6.764;2023-12-29T14:05:55;12.60;99.90
14182;DHT22;7171;50.936;6.764;2023-12-29T14:08:25;12.40;99.90
14182;DHT22;7171;50.936;6.764;2023-12-29T14:10:52;12.40;99.90
14182;DHT22;7171;50.936;6.764;2023-12-29T14:13:20;12.30;99.90
14182;DHT22;7171;50.936;6.764;2023-12-29T14:15:48;12.20;99.90
14182;DHT22;7171;50.936;6.764;2023-12-29T14:18:32;12.10;99.90
14182;DHT22;7171;50.936;6.764;2023-12-29T14:21:05;12.10;99.90
14182;DHT22;7171;50.936;6.764;2023-12-29T14:24:09;12.00;99.90
14182;DHT22;7171;50.936;6.764;2023-12-29T14:26:36;11.90;99.90
14182;DHT22;7171;50.936;6.764;2023-12-29T14:29:03;11.90;99.90
14182;DHT22;7171;50.936;6.764;2023-12-29T14:31:36;11.80;99.90
14182;DHT22;7171;50.936;6.764;2023-12-29T14:34:04;11.80;99.90
14182;DHT22;7171;50.936;6.764;2023-12-29T14:36:31;11.90;99.90
14182;DHT22;7171;50.936;6.764;2023-12-29T14:38:58;11.80;99.90
14182;DHT22;7171;50.936;6.764;2023-12-29T14:41:24;11.80;99.90
14182;DHT22;7171;50.936;6.764;2023-12-29T14:43:52;11.80;99.90
14182;DHT22;7171;50.936;6.764;2023-12-29T14:46:19;11.70;99.90
14182;DHT22;7171;50.936;6.764;2023-12-29T14:48:47;11.90;99.90
14182;DHT22;7171;50.936;6.764;2023-12-29T14:51:14;11.80;99.90
14182;DHT22;7171;50.936;6.764;2023-12-29T14:53:43;11.70;99.90
14182;DHT22;7171;50.936;6.764;2023-12-29T14:56:11;11.80;99.90
14182;DHT22;7171;50.936;6.764;2023-12-29T14:58:38;11.70;99.90
14182;DHT22;7171;50.936;6.764;2023-12-29T15:01:05;11.80;99.90
14182;DHT22;7171;50.936;6.764;2023-12-29T15:03:32;11.80;99.90
14182;DHT22;7171;50.936;6.764;2023-12-29T15:06:01;11.80;99.90
14182;DHT22;7171;50.936;6.764;2023-12-29T15:08:28;11.90;99.90
14182;DHT22;7171;50.936;6.764;2023-12-29T15:11:00;11.90;99.90
14182;DHT22;7171;50.936;6.764;2023-12-29T15:13:28;11.90;99.90
14182;DHT22;7171;50.936;6.764;2023-12-29T15:15:56;11.90;99.90
14182;DHT22;7171;50.936;6.764;2023-12-29T15:18:23;12.00;99.90
14182;DHT22;7171;50.936;6.764;2023-12-29T15:20:49;12.00;99.90
14182;DHT22;7171;50.936;6.764;2023-12-29T15:23:18;12.00;99.90
14182;DHT22;7171;50.936;6.764;2023-12-29T15:25:45;12.10;99.90
14182;DHT22;7171;50.936;6.764;2023-12-29T15:28:11;12.00;99.90
14182;DHT22;7171;50.936;6.764;2023-12-29T15:30:38;12.10;99.90
14182;DHT22;7171;50.936;6.764;2023-12-29T15:33:05;12.10;99.90
14182;DHT22;7171;50.936;6.764;2023-12-29T15:35:32;12.10;99.90
14182;DHT22;7171;50.936;6.764;2023-12-29T15:37:58;12.10;99.90
14182;DHT22;7171;50.936;6.764;2023-12-29T15:40:26;12.10;99.90
14182;DHT22;7171;50.936;6.764;2023-12-29T15:42:53;12.10;99.90
14182;DHT22;7171;50.936;6.764;2023-12-29T15:45:21;12.10;99.90
14182;DHT22;7171;50.936;6.764;2023-12-29T15:47:48;12.10;99.90
14182;DHT22;7171;50.936;6.764;2023-12-29T15:50:15;12.10;99.90
14182;DHT22;7171;50.936;6.764;2023-12-29T15:52:42;12.10;99.90
14182;DHT22;7171;50.936;6.764;2023-12-29T15:55:09;12.10;99.90